• Join FlightAware (Why Join?)
  • Login
  • US Flag 
04:59PM EDT


 

Airport Tracker/Info


-or-


 

Live Flight TrackerFlight Track Log ✈ UAL1177 ✈ 15-Apr-2013 ✈ KSFO - KSTL

Flight Track Log - Related Links

Times and Time Zones

All times are in EDT time to prevent confusion due to time zone crossing. See the UAL1177 flight status page for this flight to view local times or setup timezone preferences in your user account.

Time Position Orientation Groundspeed Altitude Reporting Facility
EDT Latitude Longitude Course Direction KTS MPH feet Rate Location/Type
03:37PM 37.6167 -122.3833 76° East 131 151 900  Level Northern Cal TRACON
03:38PM 37.6667 -122.3500 28° Northeast 219 252 3,300 2,460 Climbing Northern Cal TRACON
03:38PM 37.6675 -122.3333 86° East 243 280 4,100 3,000 Climbing Oakland Center
03:39PM 37.7072 -122.2547 57° Northeast 258 297 7,500 3,120 Climbing Oakland Center
03:40PM 37.6664 -122.1844 72° East  Level FlightAware Approximate
03:40PM 37.7444 -122.1575 64° Northeast 296 341 10,500  Level Oakland Center
03:41PM 37.7278 -122.0194 70° East  Level FlightAware Approximate
03:41PM 37.7783 -122.0394 70° East 335 386 13,600  Level Oakland Center
03:42PM 37.7862 -121.8521 76° East  Level FlightAware Approximate
03:42PM 37.8231 -121.8856 70° East 383 441 17,100  Level Oakland Center
03:43PM 37.8617 -121.7492 70° East 409 471 19,700 2,280 Climbing Oakland Center
03:44PM 37.8886 -121.5967 77° East 447 514 21,800 2,340 Climbing Oakland Center
03:45PM 37.9156 -121.4364 78° East 462 532 24,500 2,280 Climbing Oakland Center
03:46PM 37.9422 -121.2753 78° East 468 539 26,500 1,800 Climbing Oakland Center
03:47PM 37.9697 -121.1078 78° East 481 554 28,300 1,620 Climbing Oakland Center
03:48PM 37.9981 -120.9314 78° East 500 575 29,800 1,380 Climbing Oakland Center
03:49PM 38.0267 -120.7486 79° East 524 603 31,200 1,320 Climbing Oakland Center
03:50PM 38.0569 -120.5614 78° East 541 623 32,600 840 Climbing Oakland Center
03:51PM 38.0919 -120.3336 79° East 551 634 33,000 180 Climbing Oakland Center
03:52PM 38.1206 -120.1433 79° East 550 633 33,000  Level Oakland Center
03:53PM 38.1514 -119.9539 78° East 550 633 33,000  Level Oakland Center
03:54PM 38.1792 -119.7628 79° East 551 634 33,000  Level Oakland Center
03:55PM 38.2069 -119.5714 79° East 552 635 33,000  Level Oakland Center
03:56PM 38.2339 -119.3897 79° East 548 631 33,000  Level Oakland Center
03:57PM 38.2608 -119.2042 79° East 538 619 33,000 240 Level Oakland Center
03:58PM 38.2931 -118.9797 80° East 540 621 33,500 900 Climbing Oakland Center
03:59PM 38.3203 -118.7889 80° East 549 632 34,900 1,620 Climbing Oakland Center
04:01PM 38.3472 -118.5964 80° East 553 636 36,900 1,980 Climbing Oakland Center
04:02PM 38.3717 -118.4178 80° East 520 598 39,000 1,020 Climbing Oakland Center
04:03PM 38.3961 -118.2417 80° East 508 585 39,000  Level Oakland Center
04:04PM 38.4200 -118.0639 80° East 510 587 39,000  Level Oakland Center
04:05PM 38.4431 -117.8850 81° East 510 587 39,000  Level Oakland Center
04:06PM 38.4669 -117.7028 80° East 515 593 39,000  Level Oakland Center
04:07PM 38.4908 -117.5214 80° East 516 594 39,000  Level Oakland Center
04:08PM 38.5147 -117.3383 80° East 516 594 39,000 -240 Level Oakland Center
04:09PM 38.5175 -117.1506 89° East 522 601 38,600 -720 Descending Oakland Center
04:10PM 38.5136 -116.9633 91° East 521 600 37,600 -960 Descending Oakland Center
04:11PM 38.5092 -116.7731 92° East 529 609 36,700 -1,080 Descending Oakland Center
04:12PM 38.5044 -116.5431 91° East 535 616 35,500 -1,140 Descending Oakland Center
04:12PM 38.5033 -116.5044 92° East 537 618 35,300 -540 Descending Salt Lake Center
04:13PM 38.4986 -116.3478 92° East 546 628 35,000 -360 Descending Oakland Center
04:14PM 38.4931 -116.1533 92° East 546 628 34,700 -420 Descending Oakland Center
04:14PM 38.4919 -116.1153 92° East 547 629 34,500 -960 Descending Salt Lake Center
04:15PM 38.4842 -115.9194 93° East 550 633 33,500 -780 Descending Salt Lake Center
04:16PM 38.4789 -115.7222 92° East 554 638 33,000 -300 Descending Salt Lake Center
04:17PM 38.4731 -115.5256 92° East 554 638 33,000  Level Salt Lake Center
04:18PM 38.4653 -115.3017 92° East 554 638 33,000  Level Salt Lake Center
04:19PM 38.4586 -115.1069 92° East 551 634 33,000  Level Salt Lake Center
04:20PM 38.4503 -114.9131 93° East 549 632 33,000  Level Salt Lake Center
04:21PM 38.4431 -114.7200 93° East 546 628 33,000  Level Salt Lake Center
04:22PM 38.4344 -114.5258 93° East 548 631 33,000  Level Salt Lake Center
04:23PM 38.4258 -114.3303 93° East 552 635 33,000  Level Salt Lake Center
04:24PM 38.4181 -114.1347 93° East 552 635 33,000  Level Salt Lake Center
04:25PM 38.4089 -113.9417 93° East 548 631 33,000  Level Salt Lake Center
04:26PM 38.3997 -113.7469 93° East 549 632 33,000  Level Salt Lake Center
04:27PM 38.3872 -113.5142 94° East 548 631 33,000  Level Salt Lake Center
04:28PM 38.3769 -113.3183 94° East 552 635 33,000  Level Salt Lake Center
04:29PM 38.3669 -113.1219 94° East 553 636 33,000  Level Salt Lake Center
04:30PM 38.3758 -112.9281 87° East 551 634 33,000  Level Salt Lake Center
04:31PM 38.4119 -112.7372 76° East 551 634 33,000  Level Salt Lake Center
04:32PM 38.4467 -112.5478 77° East 548 631 33,000  Level Salt Lake Center
04:33PM 38.4808 -112.3572 77° East 550 633 33,000  Level Salt Lake Center
04:34PM 38.5142 -112.1667 77° East 550 633 33,000  Level Salt Lake Center
04:36PM 38.5492 -111.9764 77° East 550 633 33,000  Level Salt Lake Center
04:37PM 38.5828 -111.7833 77° East 554 638 33,000  Level Salt Lake Center
04:38PM 38.6164 -111.5894 77° East 558 642 33,000  Level Salt Lake Center
04:39PM 38.6556 -111.3575 78° East 556 640 33,000  Level Salt Lake Center
04:40PM 38.6886 -111.1636 78° East 558 642 33,000  Level Salt Lake Center
04:41PM 38.7200 -110.9714 78° East 555 639 33,000  Level Salt Lake Center
04:42PM 38.7536 -110.7664 78° East 556 640 33,000  Level Salt Lake Center
04:43PM 38.7850 -110.5822 78° East 554 638 33,000  Level Salt Lake Center
04:44PM 38.8144 -110.3978 78° East 554 638 33,000  Level Salt Lake Center
04:44PM 38.8222 -110.3364 81° East 549 632 33,000  Level Denver Center
04:45PM 38.8547 -110.1203 79° East 552 635 33,000  Level Denver Center
04:46PM 38.8775 -110.0019 76° East 549 632 33,000  Level Salt Lake Center
04:47PM 38.9111 -109.7878 79° East 550 633 33,000  Level Salt Lake Center
04:47PM 38.9181 -109.7233 82° East 549 632 33,000  Level Denver Center
04:48PM 38.9461 -109.5372 79° East 555 639 33,000  Level Denver Center
04:49PM 38.9786 -109.3214 79° East 554 638 33,000  Level Denver Center
04:50PM 39.0031 -109.1669 78° East 556 640 33,000  Level Denver Center
04:51PM 39.0419 -108.9194 78° East 558 642 33,000  Level Denver Center
04:52PM 39.0714 -108.7347 78° East 554 638 33,000  Level Denver Center
04:53PM 39.1161 -108.5222 75° East 554 638 33,000  Level Denver Center
04:54PM 39.1539 -108.3383 75° East 558 642 33,000  Level Denver Center
04:55PM 39.1978 -108.1219 75° East 562 647 33,000  Level Denver Center
04:56PM 39.2353 -107.9381 75° East 558 642 33,000  Level Denver Center
04:57PM 39.2722 -107.7528 76° East 559 643 33,000  Level Denver Center
04:58PM 39.3147 -107.5353 76° East 560 644 33,000  Level Denver Center
04:59PM 39.3511 -107.3497 76° East 560 644 33,000  Level Denver Center
05:00PM 39.3939 -107.1322 76° East 560 644 33,000  Level Denver Center
05:02PM 39.4294 -106.9458 76° East 558 642 33,000  Level Denver Center
05:03PM 39.4600 -106.7242 80° East 561 646 33,000  Level Denver Center
05:04PM 39.4831 -106.5303 81° East 569 655 33,000  Level Denver Center
05:05PM 39.5056 -106.3347 81° East 572 658 33,000  Level Denver Center
05:06PM 39.5314 -106.1111 81° East 566 651 33,000  Level Denver Center
05:07PM 39.5542 -105.9092 82° East 564 649 33,000  Level Denver Center
05:08PM 39.5800 -105.6706 82° East 562 647 33,000  Level Denver Center
05:09PM 39.6103 -105.3981 82° East 561 646 33,000 60 Level Denver Center
05:10PM 39.6278 -105.2278 82° East 561 646 33,200 960 Climbing Denver Center
05:11PM 39.6514 -104.9972 82° East 549 632 35,000 840 Climbing Denver Center
05:12PM 39.6703 -104.7967 83° East 547 629 35,000  Level Denver Center
05:13PM 39.6875 -104.5864 84° East 546 628 35,000  Level Denver Center
05:14PM 39.6689 -104.3883 97° East 550 633 35,000  Level Denver Center
05:15PM 39.6533 -104.2244 97° East 538 619 35,000  Level Denver Center
05:16PM 39.6317 -103.9978 97° East 536 617 35,000  Level Denver Center
05:17PM 39.6125 -103.8025 97° East 532 612 35,000  Level Denver Center
05:18PM 39.5939 -103.6111 97° East 522 601 35,000  Level Denver Center
05:19PM 39.5761 -103.4206 97° East 529 609 35,000  Level Denver Center
05:20PM 39.5558 -103.2286 98° East 532 612 35,000  Level Denver Center
05:21PM 39.5353 -103.0383 98° East 531 611 35,000  Level Denver Center
05:22PM 39.5167 -102.8492 97° East 528 608 35,000  Level Denver Center
05:23PM 39.4961 -102.6653 98° East 513 590 35,000  Level Denver Center
05:25PM 39.4731 -102.4536 98° East 506 582 35,000  Level Denver Center
05:26PM 39.4531 -102.2697 98° East 502 578 35,000  Level Denver Center
05:27PM 39.4339 -102.0997 98° East 501 577 35,000  Level Denver Center
05:28PM 39.4153 -101.9306 98° East 500 575 35,000  Level Denver Center
05:29PM 39.3914 -101.7297 99° East 507 583 35,000  Level Denver Center
05:30PM 39.3739 -101.5589 97° East 504 580 35,000  Level Denver Center
05:31PM 39.3556 -101.3581 97° East 505 581 35,000  Level Denver Center
05:32PM 39.3381 -101.1858 97° East 506 582 35,000  Level Denver Center
05:33PM 39.3181 -100.9856 97° East 505 581 35,000  Level Denver Center
05:34PM 39.3003 -100.8144 98° East 505 581 35,000  Level Denver Center
05:35PM 39.2783 -100.6125 98° East 508 585 35,000  Level Denver Center
05:36PM 39.2611 -100.4400 97° East 508 585 35,000  Level Denver Center
05:37PM 39.2425 -100.2672 98° East 508 585 35,000  Level Denver Center
05:38PM 39.2206 -100.0667 98° East 507 583 35,000  Level Denver Center
05:39PM 39.2031 -99.9039 98° East 501 577 35,000  Level Denver Center
05:41PM 39.1611 -99.5381 98° East 498 573 35,000  Level Denver Center
05:42PM 39.1581 -99.3367 91° East 506 582 35,000  Level Denver Center
05:43PM 39.1600 -99.1644 89° East 502 578 35,000  Level Denver Center
05:44PM 39.1614 -98.9911 89° East 504 580 35,000  Level Denver Center
05:45PM 39.1619 -98.8206 90° East 511 588 35,000  Level Denver Center
05:46PM 39.1636 -98.6053 89° East 504 580 35,000  Level Denver Center
05:47PM 39.1636 -98.4236 90° East 506 582 35,000  Level Denver Center
05:48PM 39.1644 -98.2325 90° East 510 587 35,000  Level Kansas City Center
05:49PM 39.1639 -98.0506 90° East 508 585 35,000  Level Kansas City Center
05:50PM 39.1644 -97.8661 90° East 510 587 35,000  Level Kansas City Center
05:51PM 39.1639 -97.6603 90° East 515 593 35,000  Level Kansas City Center
05:52PM 39.1633 -97.4836 90° East 515 593 35,000  Level Kansas City Center
05:53PM 39.1619 -97.3094 91° East 510 587 35,000  Level Kansas City Center
05:54PM 39.1600 -97.1072 91° East 507 583 35,000  Level Kansas City Center
05:55PM 39.1586 -96.9333 91° East 507 583 35,000  Level Kansas City Center
05:56PM 39.1558 -96.7308 91° East 507 583 35,000  Level Kansas City Center
05:57PM 39.1539 -96.5572 91° East 506 582 35,000  Level Kansas City Center
05:58PM 39.1503 -96.3556 91° East 506 582 35,000  Level Kansas City Center
05:59PM 39.1469 -96.1842 91° East 502 578 35,000  Level Kansas City Center
06:00PM 39.1436 -95.9836 91° East 501 577 35,000  Level Kansas City Center
06:01PM 39.1403 -95.8108 91° East 505 581 35,000  Level Kansas City Center
06:03PM 39.1375 -95.6083 91° East 510 587 35,000  Level Kansas City Center
06:04PM 39.1325 -95.4219 92° East 504 580 35,000  Level Kansas City Center
06:05PM 39.1289 -95.2417 91° East 505 581 35,000  Level Kansas City Center
06:06PM 39.1233 -95.0692 92° East 512 589 35,000  Level Kansas City Center
06:07PM 39.1183 -94.8692 92° East 506 582 35,000  Level Kansas City Center
06:08PM 39.1128 -94.6953 92° East 509 586 35,000  Level Kansas City Center
06:09PM 39.1075 -94.4939 92° East 505 581 35,000  Level Kansas City Center
06:10PM 39.1011 -94.3206 93° East 507 583 35,000  Level Kansas City Center
06:11PM 39.0906 -94.1208 94° East 502 578 35,000  Level Kansas City Center
06:12PM 39.0417 -93.9628 112° Southeast 494 568 35,000  Level Kansas City Center
06:13PM 38.9833 -93.7806 112° Southeast 494 568 35,000  Level Kansas City Center
06:14PM 38.9408 -93.6347 111° Southeast 494 568 35,000  Level Kansas City Center
06:15PM 38.8886 -93.4728 112° Southeast 492 566 35,000 -540 Level Kansas City Center
06:16PM 38.8236 -93.2797 113° Southeast 490 564 34,000 -960 Descending Kansas City Center
06:17PM 38.7708 -93.1153 112° Southeast 495 570 33,100 -960 Descending Kansas City Center
06:18PM 38.7175 -92.9519 113° Southeast 495 570 32,100 -960 Descending Kansas City Center
06:19PM 38.6817 -92.7797 105° East 506 582 31,200 -960 Descending Kansas City Center
06:20PM 38.6842 -92.5956 89° East 513 590 30,200 -1,500 Descending Kansas City Center
06:21PM 38.6861 -92.4144 89° East 509 586 28,100 -2,220 Descending Kansas City Center
06:22PM 38.6875 -92.2403 89° East 495 570 25,700 -2,280 Descending Kansas City Center
06:23PM 38.6892 -92.0744 89° East 473 544 23,500 -2,400 Descending Kansas City Center
06:24PM 38.6908 -91.8822 89° East 452 520 20,800 -2,280 Descending Kansas City Center
06:25PM 38.6914 -91.7292 90° East 438 504 18,800 -2,280 Descending Kansas City Center
06:26PM 38.6939 -91.5739 89° East 414 476 17,000 -2,400 Descending FAA TRACON SMA TRACON (SMA)
06:26PM 38.6944 -91.5297 89° East 409 471 16,400 -2,100 Descending FAA TRACON SMA TRACON (SMA)
06:27PM 38.6942 -91.4742 90° East 406 467 15,600 -2,220 Descending FAA TRACON SMA TRACON (SMA)
06:27PM 38.6933 -91.4306 91° East 401 461 14,900 -2,040 Descending FAA TRACON SMA TRACON (SMA)
06:27PM 38.6928 -91.3872 91° East 397 457 14,300 -2,100 Descending FAA TRACON SMA TRACON (SMA)
06:28PM 38.6931 -91.3336 90° East 394 453 13,500 -2,100 Descending FAA TRACON SMA TRACON (SMA)
06:28PM 38.6928 -91.2914 90° East 388 447 12,900 -1,980 Descending FAA TRACON SMA TRACON (SMA)
06:28PM 38.6928 -91.2492 90° East 385 443 12,200 -2,100 Descending FAA TRACON SMA TRACON (SMA)
06:29PM 38.6917 -91.1969 92° East 383 441 11,500 -1,980 Descending FAA TRACON SMA TRACON (SMA)
06:29PM 38.6911 -91.1556 91° East 380 437 10,900 -900 Descending FAA TRACON SMA TRACON (SMA)
06:29PM 38.6911 -91.1147 90° East 375 432 10,900  Level FAA TRACON SMA TRACON (SMA)
06:30PM 38.6911 -91.0642 90° East 370 426 10,900  Level FAA TRACON SMA TRACON (SMA)
06:30PM 38.6908 -91.0231 90° East 372 428 10,900  Level FAA TRACON SMA TRACON (SMA)
06:30PM 38.6908 -90.9825 90° East 372 428 10,900 -480 Level FAA TRACON SMA TRACON (SMA)
06:31PM 38.6928 -90.9339 87° East 360 414 10,600 -1,080 Descending FAA TRACON SMA TRACON (SMA)
06:31PM 38.7011 -90.8969 74° East 356 410 10,200 -1,200 Descending FAA TRACON SMA TRACON (SMA)
06:31PM 38.7133 -90.8619 66° East 353 406 9,800 -1,800 Descending FAA TRACON SMA TRACON (SMA)
06:32PM 38.7292 -90.8192 65° Northeast 347 399 9,000 -1,980 Descending FAA TRACON SMA TRACON (SMA)
06:32PM 38.7414 -90.7856 65° Northeast 342 394 8,500 -1,380 Descending FAA TRACON SMA TRACON (SMA)
06:32PM 38.7533 -90.7533 65° Northeast 334 384 8,100 -1,500 Descending FAA TRACON SMA TRACON (SMA)
06:33PM 38.7681 -90.7139 64° Northeast 323 372 7,500 -1,860 Descending FAA TRACON SMA TRACON (SMA)
06:33PM 38.7794 -90.6828 65° Northeast 316 364 6,900 -960 Descending FAA TRACON SMA TRACON (SMA)
06:33PM 38.7906 -90.6533 64° Northeast 304 350 6,900 -300 Level FAA TRACON SMA TRACON (SMA)
06:34PM 38.8031 -90.6192 65° Northeast 280 322 6,700 -1,200 Descending FAA TRACON SMA TRACON (SMA)
06:34PM 38.8122 -90.5936 65° Northeast 261 300 6,100 -1,920 Descending FAA TRACON SMA TRACON (SMA)
06:34PM 38.8214 -90.5689 65° Northeast 252 290 5,400 -2,400 Descending FAA TRACON SMA TRACON (SMA)
06:35PM 38.8256 -90.5361 81° East 247 284 4,500 -2,400 Descending FAA TRACON SMA TRACON (SMA)
06:35PM 38.8272 -90.5114 85° East 232 267 3,800 -1,800 Descending FAA TRACON SMA TRACON (SMA)
06:35PM 38.8283 -90.4881 86° East 218 251 3,300 -1,500 Descending FAA TRACON SMA TRACON (SMA)